マサトラン の空港の天気 - METARとTAF

ヘネラル・ラファエル・ブエルナ国際空港 ( MMMZ / MZT ) - メキシコ シナロア州マサトラン
飛行場実況気象(Metar)
観測時間01/22 16:50 MST (01/22 23:50 UTC)
風向・風速北西 6m/s
視程10km以上
天気現象
なし
気温27℃
湿度58%
気圧1011.8hPa
METARMMMZ 222350Z 31012KT 15SM SKC 27/18 A2989 RMK SLP118 57003 963 ISOL CC
過去の天気等 Google飛行場航空写真 Wunderground天気予報

過去48時間のMETAR

飛行場予報(TAF)
発表時間: 1/22 15:50 MST (1/22 22:50 UTC)
予報対象時間: 22日17時 MST ~ 23日23時 MST
風向・風速西北西 5m/s
視程10km以上
なし
22日19時 MST ~ 22日20時 MST に徐々に
風向・風速静穏
23日4時 MST ~ 23日8時 MST に一時的に
視程4830m
天気現象もや
23日12時 MST から
風向・風速西 5m/s
視程10km以上
全天の4割程度の雲 雲底高度 6100m
23日18時 MST ~ 23日19時 MST に徐々に
風向・風速静穏
TAF MMMZ 222250Z 2300/2406 29010KT P6SM SKC TN16/2312Z TX28/2320Z
BECMG 2302/2303 00000KT
TEMPO 2311/2315 3SM BR
FM231900 28010KT P6SM SCT200
BECMG 2401/2402 00000KT